createdAt,value
2018-12-24T00:00:18.606Z,21.49
2018-12-24T00:01:18.611Z,21.50
2018-12-24T00:02:18.564Z,21.58
2018-12-24T00:03:18.467Z,21.46
2018-12-24T00:04:18.421Z,21.47
2018-12-24T00:05:18.374Z,21.50
2018-12-24T00:06:18.328Z,21.53
2018-12-24T00:07:18.283Z,21.52
2018-12-24T00:08:18.237Z,21.54
2018-12-24T00:09:18.188Z,21.64
2018-12-24T00:10:18.142Z,21.58
2018-12-24T00:11:18.098Z,21.49
2018-12-24T00:12:18.053Z,21.52
2018-12-24T00:13:18.006Z,21.50
2018-12-24T00:14:17.958Z,21.52
2018-12-24T00:15:17.912Z,21.49
2018-12-24T00:16:17.865Z,21.54
2018-12-24T00:17:17.821Z,21.52
2018-12-24T00:18:17.771Z,21.53
2018-12-24T00:19:17.725Z,21.53
2018-12-24T00:20:17.678Z,21.59
2018-12-24T00:21:17.731Z,21.59
2018-12-24T00:22:17.636Z,21.47
2018-12-24T00:23:17.543Z,21.50
2018-12-24T00:24:17.495Z,21.62
2018-12-24T00:25:17.447Z,21.46
2018-12-24T00:26:17.400Z,21.50
2018-12-24T00:27:17.354Z,21.56
2018-12-24T00:28:17.308Z,21.46
2018-12-24T00:29:17.260Z,21.56
2018-12-24T00:30:17.215Z,21.52
2018-12-24T00:31:17.169Z,21.61
2018-12-24T00:32:17.124Z,21.54
2018-12-24T00:33:17.075Z,21.53
2018-12-24T00:34:17.029Z,21.50
2018-12-24T00:35:16.982Z,21.47
2018-12-24T00:36:16.938Z,21.47
2018-12-24T00:37:16.889Z,21.44
2018-12-24T00:38:16.845Z,21.58
2018-12-24T00:39:16.796Z,21.38
2018-12-24T00:40:16.750Z,21.40
2018-12-24T00:41:16.703Z,21.44
2018-12-24T00:42:16.658Z,21.34
2018-12-24T00:43:16.928Z,21.31
2018-12-24T00:44:16.566Z,21.34
2018-12-24T00:45:16.518Z,21.32
2018-12-24T00:46:16.471Z,21.29
2018-12-24T00:47:16.425Z,21.38
2018-12-24T00:48:16.379Z,21.34
2018-12-24T00:49:16.332Z,21.34
2018-12-24T00:50:16.288Z,21.29
2018-12-24T00:51:16.241Z,21.34
2018-12-24T00:52:16.194Z,21.24
2018-12-24T00:53:16.146Z,21.24
2018-12-24T00:54:16.100Z,21.19
2018-12-24T00:55:16.054Z,21.21
2018-12-24T00:56:16.009Z,21.27
2018-12-24T00:57:15.961Z,21.28
2018-12-24T00:58:15.916Z,21.34
2018-12-24T00:59:15.870Z,21.35
2018-12-24T01:00:15.823Z,21.29
2018-12-24T01:01:15.778Z,21.37
2018-12-24T01:02:15.730Z,21.32
2018-12-24T01:03:15.683Z,21.37
2018-12-24T01:04:15.638Z,21.25
2018-12-24T01:05:15.640Z,21.29
2018-12-24T01:06:15.644Z,21.22
2018-12-24T01:07:15.498Z,21.34
2018-12-24T01:08:15.452Z,21.32
2018-12-24T01:09:15.408Z,21.21
2018-12-24T01:10:15.358Z,21.21
2018-12-24T01:11:15.312Z,21.22
2018-12-24T01:12:15.267Z,21.21
2018-12-24T01:13:15.218Z,21.31
2018-12-24T01:14:15.172Z,21.31
2018-12-24T01:15:15.147Z,21.29
2018-12-24T01:16:15.080Z,21.40
2018-12-24T01:17:15.032Z,21.28
2018-12-24T01:18:14.987Z,21.35
2018-12-24T01:19:14.940Z,21.40
2018-12-24T01:20:14.894Z,21.34
2018-12-24T01:21:14.847Z,21.34
2018-12-24T01:22:14.800Z,21.37
2018-12-24T01:23:14.754Z,21.31
2018-12-24T01:24:14.710Z,21.31
2018-12-24T01:25:14.661Z,21.28
2018-12-24T01:26:14.616Z,21.29
2018-12-24T01:27:14.568Z,21.27
2018-12-24T01:28:14.521Z,21.35
2018-12-24T01:29:14.475Z,21.31
2018-12-24T01:30:14.429Z,21.35
2018-12-24T01:31:14.389Z,21.27
2018-12-24T01:32:14.342Z,21.29
2018-12-24T01:33:14.289Z,21.29
2018-12-24T01:34:14.242Z,21.32
2018-12-24T01:35:14.197Z,21.27
2018-12-24T01:36:14.153Z,21.34
2018-12-24T01:37:14.107Z,21.25
2018-12-24T01:38:14.057Z,21.19
2018-12-24T01:39:14.011Z,21.28
2018-12-24T01:40:13.964Z,21.40
2018-12-24T01:41:13.917Z,21.31
2018-12-24T01:42:13.875Z,21.34
2018-12-24T01:43:13.826Z,21.31
2018-12-24T01:44:13.779Z,21.38
2018-12-24T01:45:13.732Z,21.28
2018-12-24T01:46:13.686Z,21.29
2018-12-24T01:47:13.639Z,21.28
2018-12-24T01:48:13.593Z,21.22
2018-12-24T01:49:13.546Z,21.22
2018-12-24T01:50:13.499Z,21.25
2018-12-24T01:51:13.453Z,21.25
2018-12-24T01:52:13.407Z,21.34
2018-12-24T01:53:13.363Z,21.22
2018-12-24T01:54:13.316Z,21.25
2018-12-24T01:55:13.267Z,21.21
2018-12-24T01:56:13.537Z,21.28
2018-12-24T01:57:13.174Z,21.35
2018-12-24T01:58:13.126Z,21.32
2018-12-24T01:59:13.082Z,21.29
2018-12-24T02:00:13.035Z,21.24
2018-12-24T02:01:12.988Z,21.34
2018-12-24T02:02:12.943Z,21.22
2018-12-24T02:03:12.894Z,21.28
2018-12-24T02:04:12.849Z,21.37
2018-12-24T02:05:12.802Z,21.22
2018-12-24T02:06:12.756Z,21.25
2018-12-24T02:07:12.709Z,21.29
2018-12-24T02:08:12.662Z,21.24
2018-12-24T02:09:12.616Z,21.29
2018-12-24T02:10:12.673Z,21.38
2018-12-24T02:11:12.572Z,21.27
2018-12-24T02:12:12.477Z,21.37
2018-12-24T02:13:12.431Z,21.24
2018-12-24T02:14:12.384Z,21.31
2018-12-24T02:15:12.338Z,21.29
2018-12-24T02:16:12.291Z,21.27
2018-12-24T02:17:12.242Z,21.27
2018-12-24T02:18:12.199Z,21.37
2018-12-24T02:19:12.153Z,21.28
2018-12-24T02:20:12.107Z,21.32
2018-12-24T02:21:12.057Z,21.32
2018-12-24T02:22:12.917Z,21.35
2018-12-24T02:23:11.968Z,21.31
2018-12-24T02:24:11.919Z,21.31
2018-12-24T02:25:11.872Z,21.34
2018-12-24T02:26:11.826Z,21.21
2018-12-24T02:27:11.780Z,21.21
2018-12-24T02:28:11.734Z,21.37
2018-12-24T02:29:11.685Z,21.31
2018-12-24T02:30:11.641Z,21.24
2018-12-24T02:31:11.647Z,21.22
2018-12-24T02:32:11.549Z,21.35
2018-12-24T02:33:11.501Z,21.35
2018-12-24T02:34:11.455Z,21.25
2018-12-24T02:35:11.410Z,21.21
2018-12-24T02:36:11.361Z,21.22
2018-12-24T02:37:11.315Z,21.22
2018-12-24T02:38:11.269Z,21.28
2018-12-24T02:39:11.221Z,21.28
2018-12-24T02:40:11.177Z,21.25
2018-12-24T02:41:11.131Z,21.24
2018-12-24T02:42:11.083Z,21.27
2018-12-24T02:43:11.036Z,21.24
2018-12-24T02:44:10.991Z,21.40
2018-12-24T02:45:10.943Z,21.38
2018-12-24T02:46:10.904Z,21.34
2018-12-24T02:47:10.852Z,21.31
2018-12-24T02:48:10.805Z,21.32
2018-12-24T02:49:10.757Z,21.34
2018-12-24T02:50:10.711Z,21.29
2018-12-24T02:51:10.665Z,21.42
2018-12-24T02:52:10.620Z,21.32
2018-12-24T02:53:10.671Z,21.31
2018-12-24T02:54:10.575Z,21.35
2018-12-24T02:55:10.479Z,21.29
2018-12-24T02:56:10.433Z,21.28
2018-12-24T02:57:10.384Z,21.35
2018-12-24T02:58:10.341Z,21.28
2018-12-24T02:59:10.294Z,21.34
2018-12-24T03:00:10.247Z,21.28
2018-12-24T03:01:10.201Z,21.27
2018-12-24T03:02:10.154Z,21.32
2018-12-24T03:03:10.107Z,21.32
2018-12-24T03:04:10.061Z,21.35
2018-12-24T03:05:10.015Z,21.27
2018-12-24T03:06:09.968Z,21.35
2018-12-24T03:07:09.921Z,21.29
2018-12-24T03:08:09.880Z,21.35
2018-12-24T03:09:09.830Z,21.38
2018-12-24T03:10:10.099Z,21.31
2018-12-24T03:11:10.052Z,21.34
2018-12-24T03:12:10.006Z,21.35
2018-12-24T03:13:09.642Z,21.29
2018-12-24T03:14:09.594Z,21.29
2018-12-24T03:15:09.599Z,21.35
2018-12-24T03:16:09.503Z,21.32
2018-12-24T03:17:09.456Z,21.38
2018-12-24T03:18:09.415Z,21.38
2018-12-24T03:19:09.371Z,21.31
2018-12-24T03:20:09.320Z,21.35
2018-12-24T03:21:09.270Z,21.31
2018-12-24T03:22:09.230Z,21.35
2018-12-24T03:23:09.178Z,21.31
2018-12-24T03:24:09.148Z,21.32
2018-12-24T03:25:09.084Z,21.34
2018-12-24T03:26:09.038Z,21.35
2018-12-24T03:27:08.991Z,21.34
2018-12-24T03:28:08.945Z,21.35
2018-12-24T03:29:08.900Z,21.35
2018-12-24T03:30:08.855Z,21.40
2018-12-24T03:31:08.806Z,21.37
2018-12-24T03:32:08.761Z,21.34
2018-12-24T03:33:08.722Z,21.28
2018-12-24T03:34:08.666Z,21.35
2018-12-24T03:35:08.621Z,21.31
2018-12-24T03:36:08.574Z,21.29
2018-12-24T03:37:08.526Z,21.31
2018-12-24T03:38:08.482Z,21.34
2018-12-24T03:39:08.441Z,21.22
2018-12-24T03:40:08.390Z,21.31
2018-12-24T03:41:08.340Z,21.32
2018-12-24T03:42:08.295Z,21.32
2018-12-24T03:43:12.791Z,21.29
2018-12-24T03:44:08.202Z,21.29
2018-12-24T03:45:08.155Z,21.29
2018-12-24T03:46:08.107Z,21.38
2018-12-24T03:47:08.061Z,21.32
2018-12-24T03:48:08.016Z,21.37
2018-12-24T03:49:07.969Z,21.29
2018-12-24T03:50:07.921Z,21.34
2018-12-24T03:51:07.875Z,21.35
2018-12-24T03:52:07.829Z,21.32
2018-12-24T03:53:07.783Z,21.29
2018-12-24T03:54:07.735Z,21.27
2018-12-24T03:55:07.689Z,21.38
2018-12-24T03:56:07.693Z,21.28
2018-12-24T03:57:07.596Z,21.29
2018-12-24T03:58:07.602Z,21.28
2018-12-24T03:59:07.503Z,21.40
2018-12-24T04:00:07.456Z,21.32
2018-12-24T04:01:07.410Z,21.35
2018-12-24T04:02:07.363Z,21.37
2018-12-24T04:03:07.317Z,21.37
2018-12-24T04:04:07.272Z,21.32
2018-12-24T04:05:07.224Z,21.32
2018-12-24T04:06:07.178Z,21.31
2018-12-24T04:07:07.132Z,21.31
2018-12-24T04:08:07.086Z,21.29
2018-12-24T04:09:07.037Z,21.37
2018-12-24T04:10:06.990Z,21.34
2018-12-24T04:11:06.948Z,21.29
2018-12-24T04:12:06.906Z,21.32
2018-12-24T04:13:06.861Z,21.28
2018-12-24T04:14:06.805Z,21.31
2018-12-24T04:15:06.759Z,21.31
2018-12-24T04:16:06.712Z,21.37
2018-12-24T04:17:06.665Z,21.28
2018-12-24T04:18:06.670Z,21.29
2018-12-24T04:19:06.624Z,21.37
2018-12-24T04:20:06.578Z,21.32
2018-12-24T04:21:06.484Z,21.28
2018-12-24T04:22:06.434Z,21.27
2018-12-24T04:23:06.386Z,21.28
2018-12-24T04:24:06.343Z,21.29
2018-12-24T04:25:06.295Z,21.32
2018-12-24T04:26:06.246Z,21.29
2018-12-24T04:27:06.205Z,21.24
2018-12-24T04:28:06.156Z,21.22
2018-12-24T04:29:06.107Z,21.28
2018-12-24T04:30:06.061Z,21.25
2018-12-24T04:31:06.014Z,21.25
2018-12-24T04:32:05.968Z,21.19
2018-12-24T04:33:05.920Z,21.28
2018-12-24T04:34:05.874Z,21.21
2018-12-24T04:35:05.828Z,21.24
2018-12-24T04:36:05.782Z,21.32
2018-12-24T04:37:05.736Z,21.29
2018-12-24T04:38:05.691Z,21.34
2018-12-24T04:39:05.641Z,21.29
2018-12-24T04:40:05.594Z,21.34
2018-12-24T04:41:05.598Z,21.25
2018-12-24T04:42:05.509Z,21.29
2018-12-24T04:43:05.455Z,21.29
2018-12-24T04:44:05.411Z,21.38
2018-12-24T04:45:05.368Z,21.34
2018-12-24T04:46:05.315Z,21.29
2018-12-24T04:47:05.269Z,21.34
2018-12-24T04:48:05.224Z,21.32
2018-12-24T04:49:05.173Z,21.31
2018-12-24T04:50:05.127Z,21.31
2018-12-24T04:51:05.086Z,21.29
2018-12-24T04:52:05.035Z,21.21
2018-12-24T04:53:04.992Z,21.24
2018-12-24T04:54:04.943Z,21.29
2018-12-24T04:55:04.896Z,21.34
2018-12-24T04:56:04.847Z,21.32
2018-12-24T04:57:04.804Z,21.32
2018-12-24T04:58:04.755Z,21.28
2018-12-24T04:59:04.710Z,21.35
2018-12-24T05:00:04.667Z,21.31
2018-12-24T05:01:04.615Z,21.38
2018-12-24T05:02:04.568Z,21.32
2018-12-24T05:03:04.522Z,21.35
2018-12-24T05:04:04.474Z,21.32
2018-12-24T05:05:04.429Z,21.24
2018-12-24T05:06:04.382Z,21.24
2018-12-24T05:07:04.335Z,21.32
2018-12-24T05:08:04.288Z,21.24
2018-12-24T05:09:04.241Z,21.29
2018-12-24T05:10:04.195Z,21.29
2018-12-24T05:11:04.148Z,21.22
2018-12-24T05:12:04.101Z,21.31
2018-12-24T05:13:04.054Z,21.28
2018-12-24T05:14:04.008Z,21.21
2018-12-24T05:15:03.960Z,21.29
2018-12-24T05:16:03.916Z,21.29
2018-12-24T05:17:03.867Z,21.32
2018-12-24T05:18:03.820Z,21.31
2018-12-24T05:19:03.774Z,21.25
2018-12-24T05:20:03.728Z,21.32
2018-12-24T05:21:03.680Z,21.28
2018-12-24T05:22:03.633Z,21.40
2018-12-24T05:23:03.585Z,21.37
2018-12-24T05:24:03.640Z,21.24
2018-12-24T05:25:03.491Z,21.31
2018-12-24T05:26:03.452Z,21.31
2018-12-24T05:27:03.399Z,21.29
2018-12-24T05:28:03.354Z,21.28
2018-12-24T05:29:03.307Z,21.37
2018-12-24T05:30:03.259Z,21.22
2018-12-24T05:31:03.211Z,21.25
2018-12-24T05:32:03.165Z,21.24
2018-12-24T05:33:03.118Z,21.27
2018-12-24T05:34:03.071Z,21.38
2018-12-24T05:35:03.025Z,21.22
2018-12-24T05:36:02.978Z,21.24
2018-12-24T05:37:02.931Z,21.24
2018-12-24T05:38:02.883Z,21.35
2018-12-24T05:39:02.836Z,21.31
2018-12-24T05:40:02.792Z,21.32
2018-12-24T05:41:02.742Z,21.19
2018-12-24T05:42:02.697Z,21.38
2018-12-24T05:43:02.650Z,21.28
2018-12-24T05:44:02.603Z,21.24
2018-12-24T05:45:02.606Z,21.35
2018-12-24T05:46:02.510Z,21.32
2018-12-24T05:47:02.463Z,21.37
2018-12-24T05:48:02.417Z,21.32
2018-12-24T05:49:02.369Z,21.24
2018-12-24T05:50:02.322Z,21.17
2018-12-24T05:51:02.277Z,21.19
2018-12-24T05:52:02.230Z,21.27
2018-12-24T05:53:02.182Z,21.31
2018-12-24T05:54:02.137Z,21.25
2018-12-24T05:55:02.089Z,21.21
2018-12-24T05:56:02.042Z,21.21
2018-12-24T05:57:01.994Z,21.24
2018-12-24T05:58:01.947Z,21.21
2018-12-24T05:59:01.901Z,21.22
2018-12-24T06:00:01.856Z,21.25
2018-12-24T06:01:01.807Z,21.27
2018-12-24T06:02:01.760Z,21.31
2018-12-24T06:03:01.713Z,21.28
2018-12-24T06:04:01.667Z,21.24
2018-12-24T06:05:01.619Z,21.27
2018-12-24T06:06:01.627Z,21.31
2018-12-24T06:07:01.527Z,21.31
2018-12-24T06:08:01.486Z,21.22
2018-12-24T06:09:01.433Z,21.22
2018-12-24T06:10:01.387Z,21.27
2018-12-24T06:11:01.340Z,21.24
2018-12-24T06:12:01.294Z,21.21
2018-12-24T06:13:01.245Z,21.19
2018-12-24T06:14:01.198Z,21.25
2018-12-24T06:15:01.153Z,21.27
2018-12-24T06:16:01.120Z,21.24
2018-12-24T06:17:01.058Z,21.25
2018-12-24T06:18:01.012Z,21.28
2018-12-24T06:19:00.963Z,21.28
2018-12-24T06:20:00.918Z,21.22
2018-12-24T06:21:00.869Z,21.19
2018-12-24T06:22:00.828Z,21.22
2018-12-24T06:23:00.777Z,21.31
2018-12-24T06:24:00.730Z,21.25
2018-12-24T06:25:00.683Z,21.29
2018-12-24T06:26:00.636Z,21.22
2018-12-24T06:27:00.590Z,21.28
2018-12-24T06:28:00.592Z,21.24
2018-12-24T06:29:00.496Z,21.24
2018-12-24T06:30:00.449Z,21.25
2018-12-24T06:31:00.402Z,21.27
2018-12-24T06:32:00.358Z,21.28
2018-12-24T06:33:00.311Z,21.25
2018-12-24T06:34:00.262Z,21.27
2018-12-24T06:35:00.215Z,21.31
2018-12-24T06:36:00.170Z,21.24
2018-12-24T06:37:00.121Z,21.24
2018-12-24T06:38:00.074Z,21.27
2018-12-24T06:39:00.028Z,21.25
2018-12-24T06:39:59.981Z,21.29
2018-12-24T06:41:00.051Z,21.25
2018-12-24T06:41:59.886Z,21.21
2018-12-24T06:42:59.842Z,21.19
2018-12-24T06:44:06.623Z,21.25
2018-12-24T06:44:59.746Z,21.24
2018-12-24T06:45:59.699Z,21.28
2018-12-24T06:46:59.653Z,21.28
2018-12-24T06:47:59.607Z,21.24
2018-12-24T06:48:59.609Z,21.31
2018-12-24T06:49:59.512Z,21.24
2018-12-24T06:50:59.470Z,21.31
2018-12-24T06:51:59.419Z,21.32
2018-12-24T06:52:59.372Z,21.31
2018-12-24T06:53:59.324Z,21.27
2018-12-24T06:54:59.280Z,21.24
2018-12-24T06:55:59.232Z,21.22
2018-12-24T06:56:59.184Z,21.22
2018-12-24T06:57:59.146Z,21.24
2018-12-24T06:58:59.090Z,21.22
2018-12-24T06:59:59.045Z,21.34
2018-12-24T07:00:58.997Z,21.28
2018-12-24T07:01:59.268Z,21.27
2018-12-24T07:02:58.904Z,21.17
2018-12-24T07:03:58.856Z,21.24
2018-12-24T07:04:58.810Z,21.19
2018-12-24T07:05:58.763Z,21.24
2018-12-24T07:06:58.715Z,21.19
2018-12-24T07:07:58.670Z,21.22
2018-12-24T07:08:58.622Z,21.24
2018-12-24T07:09:58.576Z,21.14
2018-12-24T07:10:58.529Z,21.22
2018-12-24T07:11:58.483Z,21.21
2018-12-24T07:12:58.435Z,21.24
2018-12-24T07:13:58.388Z,21.24
2018-12-24T07:14:58.348Z,21.27
2018-12-24T07:15:58.295Z,21.14
2018-12-24T07:16:58.248Z,21.22
2018-12-24T07:17:58.202Z,21.25
2018-12-24T07:18:58.156Z,21.27
2018-12-24T07:19:58.110Z,21.22
2018-12-24T07:20:58.060Z,21.22
2018-12-24T07:21:58.013Z,21.21
2018-12-24T07:22:57.969Z,21.21
2018-12-24T07:23:57.921Z,21.27
2018-12-24T07:24:57.873Z,21.21
2018-12-24T07:25:57.826Z,21.21
2018-12-24T07:26:57.779Z,21.17
2018-12-24T07:27:57.732Z,21.16
2018-12-24T07:28:59.184Z,21.24
2018-12-24T07:29:57.640Z,21.28
2018-12-24T07:30:57.592Z,21.25
2018-12-24T07:31:57.596Z,21.04
2018-12-24T07:32:57.497Z,21.24
2018-12-24T07:33:57.450Z,21.22
2018-12-24T07:34:57.404Z,21.21
2018-12-24T07:35:57.358Z,21.21
2018-12-24T07:36:57.311Z,21.17
2018-12-24T07:37:57.265Z,21.16
2018-12-24T07:38:57.217Z,21.14
2018-12-24T07:39:57.172Z,21.22
2018-12-24T07:40:57.123Z,21.19
2018-12-24T07:41:57.077Z,21.27
2018-12-24T07:42:57.030Z,21.22
2018-12-24T07:43:56.984Z,21.22
2018-12-24T07:44:56.936Z,21.24
2018-12-24T07:45:56.889Z,21.27
2018-12-24T07:46:56.842Z,21.24
2018-12-24T07:47:56.797Z,21.19
2018-12-24T07:48:56.752Z,21.17
2018-12-24T07:49:56.702Z,21.25
2018-12-24T07:50:56.654Z,21.27
2018-12-24T07:51:56.608Z,21.22
2018-12-24T07:52:56.612Z,21.24
2018-12-24T07:53:56.565Z,21.17
2018-12-24T07:54:56.468Z,21.22
2018-12-24T07:55:56.421Z,21.24
2018-12-24T07:56:56.373Z,21.22
2018-12-24T07:57:56.326Z,21.14
2018-12-24T07:58:56.281Z,21.22
2018-12-24T07:59:56.235Z,21.19
2018-12-24T08:00:56.185Z,21.22
2018-12-24T08:01:56.139Z,21.25
2018-12-24T08:02:56.093Z,21.17
2018-12-24T08:03:56.046Z,21.07
2018-12-24T08:04:55.997Z,21.17
2018-12-24T08:05:55.952Z,21.16
2018-12-24T08:06:55.906Z,21.24
2018-12-24T08:07:55.858Z,21.24
2018-12-24T08:08:55.819Z,21.25
2018-12-24T08:09:55.768Z,21.27
2018-12-24T08:10:55.718Z,21.19
2018-12-24T08:11:55.671Z,21.27
2018-12-24T08:12:55.624Z,21.31
2018-12-24T08:13:55.576Z,21.29
2018-12-24T08:14:55.530Z,21.24
2018-12-24T08:15:55.483Z,21.22
2018-12-24T08:16:55.440Z,21.25
2018-12-24T08:17:55.390Z,21.27
2018-12-24T08:18:55.348Z,21.19
2018-12-24T08:19:55.296Z,21.25
2018-12-24T08:20:55.248Z,21.24
2018-12-24T08:21:55.202Z,21.14
2018-12-24T08:22:55.156Z,21.31
2018-12-24T08:23:55.109Z,21.22
2018-12-24T08:24:55.060Z,21.25
2018-12-24T08:25:55.015Z,21.25
2018-12-24T08:26:54.970Z,21.32
2018-12-24T08:27:54.925Z,21.22
2018-12-24T08:28:54.874Z,21.22
2018-12-24T08:29:54.828Z,21.28
2018-12-24T08:30:54.781Z,21.25
2018-12-24T08:31:54.734Z,21.25
2018-12-24T08:32:54.687Z,21.17
2018-12-24T08:33:54.640Z,21.21
2018-12-24T08:34:54.594Z,21.22
2018-12-24T08:35:54.547Z,21.22
2018-12-24T08:36:54.501Z,21.29
2018-12-24T08:37:54.453Z,21.25
2018-12-24T08:38:54.405Z,21.29
2018-12-24T08:39:54.360Z,21.21
2018-12-24T08:40:54.312Z,21.28
2018-12-24T08:41:54.265Z,21.25
2018-12-24T08:42:54.218Z,21.31
2018-12-24T08:43:54.172Z,21.31
2018-12-24T08:44:54.126Z,21.31
2018-12-24T08:45:54.078Z,21.17
2018-12-24T08:46:54.032Z,21.19
2018-12-24T08:47:53.985Z,21.28
2018-12-24T08:48:53.937Z,21.16
2018-12-24T08:49:53.890Z,21.21
2018-12-24T08:50:53.846Z,21.22
2018-12-24T08:51:53.800Z,21.24
2018-12-24T08:52:53.750Z,21.21
2018-12-24T08:53:53.702Z,21.19
2018-12-24T08:54:53.656Z,21.16
2018-12-24T08:55:53.609Z,21.16
2018-12-24T08:56:53.615Z,21.29
2018-12-24T08:57:53.516Z,21.17
2018-12-24T08:58:53.470Z,21.19
2018-12-24T08:59:53.423Z,21.19
2018-12-24T09:00:53.378Z,21.19
2018-12-24T09:01:53.327Z,21.22
2018-12-24T09:02:53.281Z,21.14
2018-12-24T09:03:53.234Z,21.25
2018-12-24T09:04:53.188Z,21.25
2018-12-24T09:05:53.141Z,21.21
2018-12-24T09:06:53.094Z,21.21
2018-12-24T09:07:53.048Z,21.24
2018-12-24T09:08:53.000Z,21.21
2018-12-24T09:09:52.954Z,21.19
2018-12-24T09:10:52.906Z,21.07
2018-12-24T09:11:52.863Z,21.27
2018-12-24T09:12:52.813Z,21.24
2018-12-24T09:13:52.766Z,21.24
2018-12-24T09:14:52.719Z,21.21
2018-12-24T09:15:52.675Z,21.24
2018-12-24T09:16:52.629Z,21.19
2018-12-24T09:17:52.588Z,21.19
2018-12-24T09:18:52.583Z,21.17
2018-12-24T09:19:52.486Z,21.19
2018-12-24T09:20:52.871Z,21.14
2018-12-24T09:21:52.391Z,21.17
2018-12-24T09:22:52.345Z,21.21
2018-12-24T09:23:52.300Z,21.24
2018-12-24T09:24:52.250Z,21.17
2018-12-24T09:25:52.204Z,21.21
2018-12-24T09:26:52.157Z,21.21
2018-12-24T09:27:52.111Z,21.22
2018-12-24T09:28:52.062Z,21.25
2018-12-24T09:29:52.017Z,21.17
2018-12-24T09:30:51.970Z,21.19
2018-12-24T09:31:51.924Z,21.19
2018-12-24T09:32:51.926Z,21.22
2018-12-24T09:33:51.828Z,21.19
2018-12-24T09:34:51.783Z,21.21
2018-12-24T09:35:53.629Z,21.21
2018-12-24T09:36:51.692Z,21.24
2018-12-24T09:37:51.643Z,21.24
2018-12-24T09:38:51.645Z,21.27
2018-12-24T09:39:51.600Z,21.22
2018-12-24T09:40:51.501Z,21.24
2018-12-24T09:41:51.454Z,21.06
2018-12-24T09:42:51.807Z,21.22
2018-12-24T09:43:51.363Z,21.14
2018-12-24T09:44:58.736Z,21.24
2018-12-24T09:45:51.267Z,21.21
2018-12-24T09:46:51.224Z,21.14
2018-12-24T09:47:51.174Z,21.14
2018-12-24T09:48:51.125Z,21.19
2018-12-24T09:49:51.079Z,21.25
2018-12-24T09:50:51.033Z,21.22
2018-12-24T09:51:50.986Z,21.19
2018-12-24T09:52:50.939Z,21.17
2018-12-24T09:53:50.892Z,21.25
2018-12-24T09:54:50.844Z,21.24
2018-12-24T09:55:50.798Z,21.22
2018-12-24T09:56:50.751Z,21.22
2018-12-24T09:57:50.704Z,21.27
2018-12-24T09:58:50.658Z,21.22
2018-12-24T09:59:50.612Z,21.22
2018-12-24T10:00:50.614Z,21.17
2018-12-24T10:01:50.569Z,21.22
2018-12-24T10:02:50.470Z,21.24
2018-12-24T10:03:50.424Z,21.38
2018-12-24T10:04:50.379Z,21.22
2018-12-24T10:05:50.330Z,21.24
2018-12-24T10:06:50.282Z,21.22
2018-12-24T10:07:50.235Z,21.24
2018-12-24T10:08:50.192Z,21.19
2018-12-24T10:09:50.142Z,21.27
2018-12-24T10:10:50.095Z,21.22
2018-12-24T10:11:50.048Z,21.27
2018-12-24T10:12:50.002Z,21.16
2018-12-24T10:13:49.956Z,21.17
2018-12-24T10:14:49.910Z,21.28
2018-12-24T10:15:49.862Z,21.22
2018-12-24T10:16:49.814Z,21.22
2018-12-24T10:17:49.767Z,21.21
2018-12-24T10:18:49.720Z,21.17
2018-12-24T10:19:49.673Z,21.19
2018-12-24T10:20:49.626Z,21.21
2018-12-24T10:21:49.635Z,21.24
2018-12-24T10:22:49.584Z,21.21
2018-12-24T10:23:49.486Z,21.24
2018-12-24T10:24:49.438Z,21.16
2018-12-24T10:25:49.392Z,21.24
2018-12-24T10:26:49.345Z,21.19
2018-12-24T10:27:49.300Z,21.27
2018-12-24T10:28:49.251Z,21.19
2018-12-24T10:29:49.205Z,21.21
2018-12-24T10:30:49.159Z,21.19
2018-12-24T10:31:49.111Z,21.25
2018-12-24T10:32:49.064Z,21.24
2018-12-24T10:33:49.017Z,21.17
2018-12-24T10:34:48.970Z,21.19
2018-12-24T10:35:48.926Z,21.34
2018-12-24T10:36:48.876Z,21.22
2018-12-24T10:37:48.829Z,21.22
2018-12-24T10:38:48.787Z,21.19
2018-12-24T10:39:48.736Z,21.22
2018-12-24T10:40:48.688Z,21.22
2018-12-24T10:41:48.642Z,21.19
2018-12-24T10:42:48.596Z,21.17
2018-12-24T10:43:48.598Z,21.10
2018-12-24T10:44:48.501Z,21.22
2018-12-24T10:45:48.455Z,21.22
2018-12-24T10:46:48.407Z,21.22
2018-12-24T10:47:48.361Z,21.21
2018-12-24T10:48:48.314Z,21.22
2018-12-24T10:49:48.272Z,21.22
2018-12-24T10:50:48.226Z,21.24
2018-12-24T10:51:48.177Z,21.19
2018-12-24T10:52:48.126Z,21.22
2018-12-24T10:53:48.078Z,21.17
2018-12-24T10:54:48.032Z,21.16
2018-12-24T10:55:47.988Z,21.16
2018-12-24T10:56:47.939Z,21.24
2018-12-24T10:57:47.892Z,21.24
2018-12-24T10:58:47.846Z,21.21
2018-12-24T10:59:47.800Z,21.24
2018-12-24T11:00:47.750Z,21.16
2018-12-24T11:01:47.705Z,21.16
2018-12-24T11:02:47.661Z,21.19
2018-12-24T11:03:47.612Z,21.21
2018-12-24T11:04:47.771Z,21.25
2018-12-24T11:05:47.518Z,21.27
2018-12-24T11:06:47.471Z,21.22
2018-12-24T11:07:47.429Z,21.22
2018-12-24T11:08:47.377Z,21.22
2018-12-24T11:09:47.330Z,21.14
2018-12-24T11:10:47.284Z,21.24
2018-12-24T11:11:47.237Z,21.21
2018-12-24T11:12:47.189Z,21.25
2018-12-24T11:13:47.142Z,21.29
2018-12-24T11:14:47.099Z,21.13
2018-12-24T11:15:47.049Z,21.22
2018-12-24T11:16:47.002Z,21.22
2018-12-24T11:17:46.955Z,21.24
2018-12-24T11:18:46.909Z,21.21
2018-12-24T11:19:46.862Z,21.27
2018-12-24T11:20:46.814Z,21.16
2018-12-24T11:21:46.767Z,21.21
2018-12-24T11:22:46.721Z,21.19
2018-12-24T11:23:46.674Z,21.25
2018-12-24T11:24:46.626Z,21.19
2018-12-24T11:25:46.580Z,21.22
2018-12-24T11:26:46.590Z,21.24
2018-12-24T11:27:46.487Z,21.25
2018-12-24T11:28:46.439Z,21.19
2018-12-24T11:29:46.392Z,21.19
2018-12-24T11:30:46.346Z,21.10
2018-12-24T11:31:46.303Z,21.24
2018-12-24T11:32:46.252Z,21.14
2018-12-24T11:33:46.205Z,21.22
2018-12-24T11:34:46.160Z,21.19
2018-12-24T11:35:46.112Z,21.17
2018-12-24T11:36:46.064Z,21.17
2018-12-24T11:37:46.017Z,21.14
2018-12-24T11:38:45.972Z,21.21
2018-12-24T11:39:45.925Z,21.22
2018-12-24T11:40:45.878Z,21.16
2018-12-24T11:41:45.830Z,21.17
2018-12-24T11:42:45.784Z,21.19
2018-12-24T11:43:45.737Z,21.21
2018-12-24T11:44:45.691Z,21.21
2018-12-24T11:45:45.643Z,21.22
2018-12-24T11:46:45.596Z,21.19
2018-12-24T11:47:45.599Z,21.16
2018-12-24T11:48:45.505Z,21.22
2018-12-24T11:49:45.458Z,21.19
2018-12-24T11:50:45.409Z,21.24
2018-12-24T11:51:45.362Z,21.21
2018-12-24T11:52:45.315Z,21.24
2018-12-24T11:53:45.275Z,21.25
2018-12-24T11:54:45.221Z,21.22
2018-12-24T11:55:45.175Z,21.19
2018-12-24T11:56:45.127Z,21.16
2018-12-24T11:57:45.080Z,21.06
2018-12-24T11:58:45.034Z,21.16
2018-12-24T11:59:44.988Z,21.24
2018-12-24T12:00:44.940Z,21.24
2018-12-24T12:01:44.893Z,21.28
2018-12-24T12:02:44.847Z,21.21
2018-12-24T12:03:44.800Z,21.12
2018-12-24T12:04:44.751Z,21.22
2018-12-24T12:05:44.706Z,21.22
2018-12-24T12:06:44.659Z,21.19
2018-12-24T12:07:44.663Z,21.21
2018-12-24T12:08:44.564Z,21.17
2018-12-24T12:09:44.569Z,21.24
2018-12-24T12:10:44.472Z,21.24
2018-12-24T12:11:44.425Z,21.17
2018-12-24T12:12:44.376Z,21.17
2018-12-24T12:13:44.331Z,21.16
2018-12-24T12:14:44.284Z,21.25
2018-12-24T12:15:44.238Z,21.17
2018-12-24T12:16:44.190Z,21.19
2018-12-24T12:17:44.143Z,21.22
2018-12-24T12:18:44.097Z,21.10
2018-12-24T12:19:44.055Z,21.16
2018-12-24T12:20:52.364Z,21.10
2018-12-24T12:21:43.962Z,21.10
2018-12-24T12:22:43.909Z,21.17
2018-12-24T12:23:43.861Z,21.14
2018-12-24T12:24:43.814Z,21.14
2018-12-24T12:25:43.769Z,21.14
2018-12-24T12:26:43.729Z,21.24
2018-12-24T12:27:43.675Z,21.17
2018-12-24T12:28:43.628Z,21.17
2018-12-24T12:29:43.582Z,21.17
2018-12-24T12:30:43.585Z,21.21
2018-12-24T12:31:43.589Z,21.19
2018-12-24T12:32:43.440Z,21.27
2018-12-24T12:33:43.399Z,21.17
2018-12-24T12:34:43.349Z,21.22
2018-12-24T12:35:43.300Z,21.19
2018-12-24T12:36:43.255Z,21.19
2018-12-24T12:37:43.206Z,21.19
2018-12-24T12:38:43.161Z,21.13
2018-12-24T12:39:43.113Z,21.17
2018-12-24T12:40:43.066Z,21.25
2018-12-24T12:41:43.019Z,21.16
2018-12-24T12:42:42.972Z,21.21
2018-12-24T12:43:42.927Z,21.17
2018-12-24T12:44:42.878Z,21.21
2018-12-24T12:45:50.967Z,21.21
2018-12-24T12:46:42.783Z,21.24
2018-12-24T12:47:42.738Z,21.21
2018-12-24T12:48:42.689Z,21.21
2018-12-24T12:49:42.644Z,21.14
2018-12-24T12:50:42.648Z,21.17
2018-12-24T12:51:42.612Z,21.21